Time;durP1;ratioP1;P1;durP2;ratioP2;P2;SDS_P1;SDS_P2;PMS_P1;PMS_P2;Temp;Humidity;BMP_temperature;BMP_pressure;BME280_temperature;BME280_humidity;BME280_pressure;Samples;Min_cycle;Max_cycle;Signal;HPM_P1;HPM_P2
2022/12/25 00:02:09;;;;;;;29.13;9.97;;;;;;;7.62;100.00;101326.16;4832912;29;20037;-86
2022/12/25 00:04:34;;;;;;;25.33;9.80;;;;;;;7.65;100.00;101323.09;4849382;29;20530;-85
2022/12/25 00:06:59;;;;;;;27.73;9.60;;;;;;;7.67;100.00;101323.72;4833024;29;20162;-85
2022/12/25 00:09:25;;;;;;;28.70;10.00;;;;;;;7.65;100.00;101306.91;4835621;29;20443;-86
2022/12/25 00:11:50;;;;;;;28.37;10.77;;;;;;;7.64;100.00;101308.75;4846938;29;20412;-85
2022/12/25 00:14:15;;;;;;;33.93;11.07;;;;;;;7.64;100.00;101311.44;4831933;29;20041;-85
2022/12/25 00:16:41;;;;;;;30.50;10.70;;;;;;;7.66;100.00;101308.59;4851010;29;20916;-85
2022/12/25 00:19:06;;;;;;;30.03;11.13;;;;;;;7.64;100.00;101321.41;4854020;29;20033;-85
2022/12/25 00:21:32;;;;;;;29.40;10.97;;;;;;;7.65;100.00;101323.09;4850424;29;20112;-85
2022/12/25 00:23:58;;;;;;;30.77;11.20;;;;;;;7.64;100.00;101313.31;4835914;29;20034;-85
2022/12/25 00:26:25;;;;;;;29.83;11.17;;;;;;;7.64;100.00;101316.00;4836023;29;20022;-86
2022/12/25 00:28:55;;;;;;;26.20;10.53;;;;;;;7.65;100.00;101323.09;4834686;29;20030;-86
2022/12/25 00:31:22;;;;;;;25.47;9.97;;;;;;;7.66;100.00;101314.00;4841827;29;20133;-85
2022/12/25 00:33:48;;;;;;;25.33;9.50;;;;;;;7.66;100.00;101304.03;4848620;29;20061;-85
2022/12/25 00:36:15;;;;;;;26.53;9.53;;;;;;;7.63;100.00;101308.94;4834007;29;20049;-86
2022/12/25 00:38:41;;;;;;;26.13;9.53;;;;;;;7.67;100.00;101312.94;4821324;29;20125;-85
2022/12/25 00:41:10;;;;;;;27.03;9.67;;;;;;;7.69;100.00;101308.22;4839794;29;20166;-85
2022/12/25 00:43:37;;;;;;;24.40;10.03;;;;;;;7.70;100.00;101305.34;4849101;29;20060;-88
2022/12/25 00:46:04;;;;;;;24.97;9.23;;;;;;;7.73;100.00;101304.16;4825053;29;20025;-88
2022/12/25 00:48:30;;;;;;;25.97;9.40;;;;;;;7.76;100.00;101293.84;4820432;29;20038;-88
2022/12/25 00:50:57;;;;;;;26.47;10.37;;;;;;;7.77;100.00;101300.06;4830619;29;20110;-88
2022/12/25 00:53:23;;;;;;;25.40;10.43;;;;;;;7.79;100.00;101292.59;4836005;29;20022;-88
2022/12/25 00:55:54;;;;;;;31.33;10.97;;;;;;;7.76;100.00;101296.53;4836923;29;20048;-88
2022/12/25 00:58:20;;;;;;;32.80;10.70;;;;;;;7.82;100.00;101300.34;4825628;29;20037;-88
2022/12/25 01:00:47;;;;;;;27.57;11.10;;;;;;;7.80;100.00;101294.28;4837503;29;20026;-88
2022/12/25 01:03:13;;;;;;;31.37;10.93;;;;;;;7.81;100.00;101295.97;4833683;29;20038;-88
2022/12/25 01:05:38;;;;;;;29.80;10.57;;;;;;;7.82;100.00;101289.56;4837243;29;20040;-88
2022/12/25 01:08:04;;;;;;;27.67;10.37;;;;;;;7.86;100.00;101293.56;4839747;29;20034;-88
2022/12/25 01:10:29;;;;;;;26.23;10.50;;;;;;;7.91;100.00;101290.31;4848188;29;20391;-88
2022/12/25 01:12:54;;;;;;;31.57;10.67;;;;;;;7.91;100.00;101293.88;4851593;29;20112;-88
2022/12/25 01:15:20;;;;;;;23.07;9.97;;;;;;;7.94;100.00;101287.25;4832312;29;20034;-85
2022/12/25 01:17:45;;;;;;;29.20;10.50;;;;;;;7.92;100.00;101286.59;4837623;29;20478;-85
2022/12/25 01:20:12;;;;;;;26.33;10.47;;;;;;;7.89;100.00;101282.41;4820213;29;20117;-85
2022/12/25 01:22:38;;;;;;;25.43;10.83;;;;;;;7.89;100.00;101285.09;4850681;29;20042;-86
2022/12/25 01:25:05;;;;;;;25.83;10.30;;;;;;;7.88;100.00;101279.91;4849080;29;20029;-85
2022/12/25 01:27:31;;;;;;;29.27;10.83;;;;;;;7.88;100.00;101291.50;4849921;29;20429;-85
2022/12/25 01:29:57;;;;;;;25.93;10.63;;;;;;;7.87;100.00;101291.72;4832483;29;20483;-85
2022/12/25 01:32:23;;;;;;;26.73;10.97;;;;;;;7.88;100.00;101301.47;4831952;29;20044;-85
2022/12/25 01:34:48;;;;;;;27.10;11.00;;;;;;;7.85;100.00;101308.06;4852855;29;20044;-85
2022/12/25 01:37:13;;;;;;;24.17;10.77;;;;;;;7.90;100.00;101310.22;4847831;29;20384;-85
2022/12/25 01:39:39;;;;;;;25.13;10.70;;;;;;;7.90;100.00;101307.53;4819713;29;20038;-85
2022/12/25 01:42:04;;;;;;;27.60;10.93;;;;;;;7.89;100.00;101309.38;4844335;29;20076;-85
2022/12/25 01:44:36;;;;;;;27.17;10.83;;;;;;;7.90;100.00;101304.81;4821417;29;20034;-88
2022/12/25 01:47:05;;;;;;;27.27;11.73;;;;;;;7.86;100.00;101307.06;4849363;29;20653;-88
2022/12/25 01:49:36;;;;;;;26.77;11.60;;;;;;;7.86;100.00;101307.06;4841578;29;20766;-88
2022/12/25 01:52:03;;;;;;;25.13;11.33;;;;;;;7.89;100.00;101303.16;4837730;29;20076;-88
2022/12/25 01:54:33;;;;;;;25.50;11.50;;;;;;;7.92;100.00;101318.97;4833592;29;20037;-88
2022/12/25 01:57:02;;;;;;;28.07;11.27;;;;;;;8.00;100.00;101313.50;4852032;29;20118;-88
2022/12/25 01:59:29;;;;;;;22.90;10.13;;;;;;;8.05;100.00;101316.50;4834858;29;20097;-88
2022/12/25 02:01:55;;;;;;;24.80;10.10;;;;;;;8.08;100.00;101320.69;4853366;29;20233;-88
2022/12/25 02:04:47;;;;;;;25.13;10.03;;;;;;;8.07;100.00;101329.81;4836147;29;20048;-88
2022/12/25 02:07:14;;;;;;;21.63;9.70;;;;;;;8.05;100.00;101319.19;4849988;29;20038;-88
2022/12/25 02:09:39;;;;;;;24.37;9.90;;;;;;;8.07;100.00;101317.13;4840425;29;20093;-88
2022/12/25 02:12:07;;;;;;;23.67;9.67;;;;;;;8.13;100.00;101328.22;4855431;29;20074;-88
2022/12/25 02:14:35;;;;;;;24.17;9.47;;;;;;;8.16;100.00;101320.63;4838397;29;20026;-85
2022/12/25 02:17:34;;;;;;;22.53;9.57;;;;;;;8.21;100.00;101326.28;4833245;29;20124;-85
2022/12/25 02:20:09;;;;;;;20.67;9.37;;;;;;;8.22;100.00;101330.66;4853682;29;20041;-85
2022/12/25 02:22:47;;;;;;;19.63;8.87;;;;;;;8.24;100.00;101334.03;4832231;29;20120;-85
2022/12/25 02:25:39;;;;;;;22.20;9.13;;;;;;;8.30;100.00;101342.41;4836822;29;20026;-86
2022/12/25 02:28:12;;;;;;;24.13;8.57;;;;;;;8.27;100.00;101339.03;4835889;29;20026;-85
2022/12/25 02:30:43;;;;;;;21.02;8.52;;;;;;;8.28;100.00;101332.63;4855376;29;20371;-86
2022/12/25 02:36:04;;;;;;;22.03;8.83;;;;;;;8.28;100.00;101334.47;4854832;29;20064;-86
2022/12/25 02:39:56;;;;;;;21.13;8.33;;;;;;;8.28;100.00;101329.94;4842017;29;20049;-86
2022/12/25 02:41:29;;;;;;;18.17;7.80;;;;;;;8.28;100.00;101329.06;4855768;29;20045;-85
2022/12/25 03:11:55;;;;;;;21.60;8.40;;;;;;;8.40;100.00;101253.84;4849288;29;20056;-88
2022/12/25 03:17:05;;;;;;;19.58;8.38;;;;;;;8.37;100.00;101246.13;4849294;29;20048;-89
2022/12/25 03:27:54;;;;;;;22.33;9.10;;;;;;;8.17;100.00;101229.66;4853454;29;20048;-86
2022/12/25 03:33:09;;;;;;;17.53;7.93;;;;;;;8.06;100.00;101228.28;4854846;29;20509;-85
2022/12/25 03:35:46;;;;;;;20.17;8.67;;;;;;;8.06;100.00;101228.28;4854777;29;20076;-85
2022/12/25 04:37:26;;;;;;;13.82;5.85;;;;;;;7.84;100.00;101213.84;4816249;29;20114;-85
2022/12/25 04:39:51;;;;;;;11.70;5.70;;;;;;;7.84;100.00;101216.53;4835290;29;20042;-85
2022/12/25 04:42:17;;;;;;;16.67;6.47;;;;;;;7.78;100.00;101218.13;4804783;29;20051;-88
2022/12/25 04:44:43;;;;;;;15.87;6.50;;;;;;;7.74;100.00;101217.63;4830357;29;20480;-88
2022/12/25 04:47:08;;;;;;;15.73;6.30;;;;;;;7.70;100.00;101216.34;4837271;29;20034;-88
2022/12/25 04:49:33;;;;;;;14.67;6.40;;;;;;;7.69;100.00;101221.91;4829762;29;20113;-88
2022/12/25 04:51:59;;;;;;;15.53;7.13;;;;;;;7.64;100.00;101218.94;4815546;29;20094;-88
2022/12/25 04:54:24;;;;;;;13.80;6.83;;;;;;;7.67;100.00;101211.31;4803598;29;20048;-88
2022/12/25 04:56:49;;;;;;;16.83;7.63;;;;;;;7.66;100.00;101212.31;4814931;29;20035;-88
2022/12/25 04:59:15;;;;;;;15.83;6.90;;;;;;;7.61;100.00;101212.03;4806105;29;20106;-88
2022/12/25 05:01:40;;;;;;;17.80;6.77;;;;;;;7.59;100.00;101204.13;4815595;29;20046;-88
2022/12/25 05:04:06;;;;;;;17.67;7.03;;;;;;;7.59;100.00;101212.22;4834547;29;20129;-88
2022/12/25 05:06:31;;;;;;;14.90;6.40;;;;;;;7.59;100.00;101206.00;4832873;29;20037;-88
2022/12/25 05:08:57;;;;;;;14.70;6.80;;;;;;;7.54;100.00;101209.22;4816087;29;20086;-88
2022/12/25 05:11:22;;;;;;;14.00;6.33;;;;;;;7.52;100.00;101213.97;4827593;29;21034;-85
2022/12/25 05:13:47;;;;;;;14.53;6.17;;;;;;;7.49;100.00;101221.59;4814846;29;20030;-86
2022/12/25 05:16:15;;;;;;;12.73;6.00;;;;;;;7.47;100.00;101208.28;4806506;29;20114;-85
2022/12/25 05:18:41;;;;;;;18.43;6.70;;;;;;;7.45;100.00;101210.31;4814594;29;20062;-85
2022/12/25 05:21:06;;;;;;;15.53;6.70;;;;;;;7.37;100.00;101196.91;4832540;29;20060;-85
2022/12/25 05:23:32;;;;;;;18.70;6.87;;;;;;;7.32;100.00;101193.94;4818388;29;20034;-85
2022/12/25 05:25:58;;;;;;;15.03;6.70;;;;;;;7.32;100.00;101194.78;4808217;29;20037;-85
2022/12/25 05:28:23;;;;;;;17.00;6.77;;;;;;;7.29;100.00;101195.16;4836462;29;20560;-88
2022/12/25 05:30:49;;;;;;;13.23;6.27;;;;;;;7.30;100.00;101193.28;4823961;29;20036;-88
2022/12/25 05:33:14;;;;;;;14.53;6.40;;;;;;;7.26;100.00;101188.25;4824155;29;20034;-88
2022/12/25 05:35:40;;;;;;;14.20;6.50;;;;;;;7.30;100.00;101183.31;4833591;29;20054;-88
2022/12/25 05:38:06;;;;;;;14.10;6.30;;;;;;;7.28;100.00;101181.84;4836613;29;20029;-88
2022/12/25 05:40:33;;;;;;;13.80;5.70;;;;;;;7.31;100.00;101168.00;4852580;29;20033;-88
2022/12/25 05:42:59;;;;;;;15.70;6.57;;;;;;;7.27;100.00;101170.22;4834527;29;21874;-88
2022/12/25 05:45:24;;;;;;;11.57;5.80;;;;;;;7.26;100.00;101172.09;4829618;29;20053;-88
2022/12/25 05:47:50;;;;;;;11.53;5.60;;;;;;;7.26;100.00;101168.53;4858520;29;20108;-88
2022/12/25 05:50:15;;;;;;;15.73;5.87;;;;;;;7.28;100.00;101171.91;4841349;29;20537;-88
2022/12/25 05:52:40;;;;;;;15.03;6.17;;;;;;;7.30;100.00;101177.94;4851908;29;20030;-88
2022/12/25 05:55:06;;;;;;;18.10;6.10;;;;;;;7.34;100.00;101181.09;4839842;29;20038;-88
2022/12/25 05:57:32;;;;;;;12.77;5.80;;;;;;;7.37;100.00;101181.59;4836880;29;20066;-88
2022/12/25 05:59:57;;;;;;;14.53;5.80;;;;;;;7.41;100.00;101182.06;4823932;29;20868;-88
2022/12/25 06:02:23;;;;;;;13.47;5.80;;;;;;;7.44;100.00;101187.09;4855561;29;20576;-88
2022/12/25 06:04:49;;;;;;;15.60;6.07;;;;;;;7.45;100.00;101172.56;4854359;29;20029;-88
2022/12/25 06:07:14;;;;;;;13.07;5.93;;;;;;;7.45;100.00;101164.47;4850471;29;20040;-88
2022/12/25 06:09:39;;;;;;;13.13;5.57;;;;;;;7.47;100.00;101161.63;4842492;29;20044;-88
2022/12/25 06:12:05;;;;;;;14.70;5.80;;;;;;;7.49;100.00;101162.28;4849913;29;20029;-88
2022/12/25 06:14:31;;;;;;;13.50;5.87;;;;;;;7.51;100.00;101162.94;4833362;29;20033;-88
2022/12/25 06:16:56;;;;;;;11.27;5.87;;;;;;;7.52;100.00;101157.34;4836320;29;20022;-88
2022/12/25 06:19:21;;;;;;;12.23;5.57;;;;;;;7.54;100.00;101166.09;4835494;29;20440;-88
2022/12/25 06:21:47;;;;;;;14.50;5.60;;;;;;;7.58;100.00;101158.47;4851488;29;20022;-88
2022/12/25 06:24:13;;;;;;;12.47;5.90;;;;;;;7.59;100.00;101152.91;4822214;29;20398;-85
2022/12/25 06:26:38;;;;;;;10.90;5.40;;;;;;;7.65;100.00;101142.41;4798587;29;20057;-85
2022/12/25 06:29:04;;;;;;;14.90;6.07;;;;;;;7.66;100.00;101123.31;4852729;29;20407;-85
2022/12/25 06:31:29;;;;;;;9.30;5.10;;;;;;;7.69;100.00;101122.13;4838193;29;20034;-85
2022/12/25 06:33:55;;;;;;;10.70;5.10;;;;;;;7.71;100.00;101129.00;4805739;29;20048;-85
2022/12/25 06:36:25;;;;;;;9.37;5.00;;;;;;;7.74;100.00;101127.81;4851401;29;20508;-85
2022/12/25 06:38:52;;;;;;;11.73;5.10;;;;;;;7.77;100.00;101122.84;4836295;29;20030;-88
2022/12/25 06:41:22;;;;;;;11.30;4.57;;;;;;;7.81;100.00;101119.81;4852660;29;20026;-88
2022/12/25 06:43:49;;;;;;;10.70;4.77;;;;;;;7.81;100.00;101112.53;4852904;29;20100;-88
2022/12/25 06:46:15;;;;;;;10.40;4.37;;;;;;;7.83;100.00;101105.06;4836105;29;20030;-88
2022/12/25 06:48:46;;;;;;;10.30;4.80;;;;;;;7.86;100.00;101099.34;4834543;29;20034;-88
2022/12/25 06:51:12;;;;;;;11.73;4.67;;;;;;;7.84;100.00;101106.75;4837130;29;20038;-88
2022/12/25 06:53:37;;;;;;;7.73;4.93;;;;;;;7.87;100.00;101106.38;4841680;29;20396;-88
2022/12/25 06:56:14;;;;;;;10.50;5.10;;;;;;;7.88;100.00;101109.94;4851274;29;20057;-88
2022/12/25 06:58:39;;;;;;;8.73;4.63;;;;;;;7.86;100.00;101088.53;4839173;29;20036;-88
2022/12/25 07:01:13;;;;;;;11.43;5.10;;;;;;;7.87;100.00;101082.09;4857421;29;20033;-88
2022/12/25 07:03:41;;;;;;;9.73;4.72;;;;;;;7.88;100.00;101064.88;4820311;29;20037;-89
2022/12/25 07:06:06;;;;;;;9.37;4.47;;;;;;;7.90;100.00;101072.78;4854567;29;20037;-88
2022/12/25 07:08:32;;;;;;;12.10;4.97;;;;;;;7.89;100.00;101077.38;4838870;29;20033;-88
2022/12/25 07:10:58;;;;;;;10.43;4.83;;;;;;;7.87;100.00;101084.78;4852479;29;20427;-88
2022/12/25 07:13:23;;;;;;;7.40;4.40;;;;;;;7.89;100.00;101076.53;4853273;29;21009;-88
2022/12/25 07:15:58;;;;;;;9.00;4.30;;;;;;;7.89;100.00;101080.06;4833905;29;20121;-88
2022/12/25 07:18:24;;;;;;;12.27;4.97;;;;;;;7.92;100.00;101092.34;4829821;29;20066;-88
2022/12/25 07:20:49;;;;;;;9.93;4.80;;;;;;;7.92;100.00;101095.03;4816661;29;20129;-88
2022/12/25 07:23:15;;;;;;;10.37;4.80;;;;;;;7.93;100.00;101094.84;4836338;29;20404;-89
2022/12/25 07:25:40;;;;;;;9.73;4.87;;;;;;;7.91;100.00;101107.69;4825721;29;20045;-88
2022/12/25 07:28:05;;;;;;;9.77;5.00;;;;;;;7.93;100.00;101111.03;4835288;29;20034;-88
2022/12/25 07:30:31;;;;;;;11.07;4.97;;;;;;;7.92;100.00;101114.75;4835979;29;20048;-88
2022/12/25 07:32:56;;;;;;;13.93;5.57;;;;;;;7.93;100.00;101116.44;4818710;29;20045;-88
2022/12/25 07:35:21;;;;;;;10.07;4.83;;;;;;;7.93;100.00;101121.00;4851684;29;20048;-88
2022/12/25 07:37:47;;;;;;;11.23;5.13;;;;;;;7.94;100.00;101117.25;4851265;29;20062;-89
2022/12/25 07:40:12;;;;;;;10.17;5.17;;;;;;;7.92;100.00;101116.63;4850449;29;20037;-85
2022/12/25 07:42:37;;;;;;;10.13;4.90;;;;;;;7.93;100.00;101119.13;4837708;29;20484;-85
2022/12/25 07:45:04;;;;;;;10.27;5.00;;;;;;;7.94;100.00;101115.41;4836853;29;20037;-85
2022/12/25 07:47:30;;;;;;;10.67;5.47;;;;;;;7.94;100.00;101091.13;4850661;29;20040;-85
2022/12/25 07:49:55;;;;;;;10.53;5.10;;;;;;;7.96;100.00;101073.94;4835411;29;20033;-85
2022/12/25 07:52:20;;;;;;;12.83;6.20;;;;;;;7.94;100.00;101080.34;4807550;29;20038;-86
2022/12/25 07:54:46;;;;;;;12.03;5.90;;;;;;;7.95;100.00;101083.88;4852381;29;20467;-89
2022/12/25 07:57:11;;;;;;;12.47;5.93;;;;;;;7.95;100.00;101094.66;4850522;29;20476;-89
2022/12/25 07:59:36;;;;;;;15.47;6.50;;;;;;;7.94;100.00;101104.63;4838354;29;20037;-89
2022/12/25 08:02:02;;;;;;;13.30;6.30;;;;;;;7.95;100.00;101118.94;4849785;29;20080;-89
2022/12/25 08:04:27;;;;;;;11.57;6.20;;;;;;;7.96;100.00;101135.97;4839756;29;20041;-89
2022/12/25 08:06:52;;;;;;;10.70;6.07;;;;;;;7.96;100.00;101138.69;4819691;29;20022;-89
2022/12/25 08:09:18;;;;;;;13.57;5.83;;;;;;;8.00;100.00;101134.59;4821501;29;21080;-89
2022/12/25 08:11:45;;;;;;;15.00;6.17;;;;;;;8.00;100.00;101137.28;4815293;29;20443;-89
2022/12/25 08:14:11;;;;;;;11.60;6.30;;;;;;;8.00;100.00;101135.41;4833719;29;20030;-89
2022/12/25 08:16:40;;;;;;;12.87;6.30;;;;;;;8.02;100.00;101130.66;4852459;29;20056;-89
2022/12/25 08:19:06;;;;;;;13.57;6.40;;;;;;;8.02;100.00;101137.91;4849849;29;20037;-89
2022/12/25 08:21:31;;;;;;;14.03;6.83;;;;;;;8.03;100.00;101153.09;4814787;29;20046;-89
2022/12/25 08:23:56;;;;;;;10.43;6.13;;;;;;;8.04;100.00;101162.88;4852029;29;20033;-88
2022/12/25 08:26:22;;;;;;;11.97;6.17;;;;;;;8.04;100.00;101157.47;4831868;29;20037;-89
2022/12/25 08:28:48;;;;;;;12.33;6.40;;;;;;;8.05;100.00;101157.28;4851917;29;20115;-89
2022/12/25 08:31:15;;;;;;;12.80;6.37;;;;;;;8.05;100.00;101149.19;4836913;29;20072;-89
2022/12/25 08:33:41;;;;;;;13.67;6.20;;;;;;;8.05;100.00;101134.84;4832934;29;20041;-89
2022/12/25 08:36:09;;;;;;;11.60;6.17;;;;;;;8.04;100.00;101138.56;4830317;29;20034;-86
2022/12/25 08:38:34;;;;;;;11.70;6.40;;;;;;;8.05;100.00;101148.31;4837329;29;20089;-86
2022/12/25 08:41:00;;;;;;;10.10;5.93;;;;;;;8.04;100.00;101138.56;4848395;29;20038;-86
2022/12/25 08:43:25;;;;;;;11.27;6.23;;;;;;;8.04;100.00;101146.66;4836313;29;20041;-86
2022/12/25 08:45:51;;;;;;;12.70;6.43;;;;;;;8.04;100.00;101152.06;4848605;29;20850;-86
2022/12/25 08:48:16;;;;;;;12.07;6.70;;;;;;;8.07;100.00;101154.38;4829132;29;20069;-86
2022/12/25 08:50:45;;;;;;;13.00;6.87;;;;;;;8.06;100.00;101147.31;4848935;29;20038;-86
2022/12/25 08:53:11;;;;;;;10.77;6.13;;;;;;;8.07;100.00;101154.38;4818213;29;20125;-86
2022/12/25 08:55:37;;;;;;;13.10;6.63;;;;;;;8.07;100.00;101154.38;4820691;29;20439;-86
2022/12/25 08:58:02;;;;;;;13.37;6.33;;;;;;;8.06;100.00;101147.31;4821350;29;20037;-86
2022/12/25 09:00:28;;;;;;;12.10;6.50;;;;;;;8.05;100.00;101145.63;4819854;29;20053;-86
2022/12/25 09:02:53;;;;;;;14.57;6.80;;;;;;;8.06;100.00;101133.81;4857484;29;20045;-86
2022/12/25 09:05:18;;;;;;;11.10;5.70;;;;;;;8.07;100.00;101130.09;4852350;29;20503;-86
2022/12/25 09:07:44;;;;;;;12.00;5.77;;;;;;;8.04;100.00;101136.72;4831243;29;20030;-86
2022/12/25 09:10:09;;;;;;;11.03;6.10;;;;;;;8.04;100.00;101125.91;4837860;29;20159;-86
2022/12/25 09:12:35;;;;;;;13.03;6.37;;;;;;;8.03;100.00;101126.09;4829539;29;20046;-86
2022/12/25 09:15:00;;;;;;;13.47;6.67;;;;;;;8.04;100.00;101122.38;4835472;29;20082;-86
2022/12/25 09:17:26;;;;;;;10.13;5.93;;;;;;;8.05;100.00;101119.50;4853394;29;21126;-86
2022/12/25 09:19:51;;;;;;;13.50;6.27;;;;;;;8.02;100.00;101132.53;4825819;29;20598;-86
2022/12/25 09:22:16;;;;;;;10.47;5.67;;;;;;;8.04;100.00;101147.50;4820573;29;20048;-86
2022/12/25 09:24:42;;;;;;;13.13;5.87;;;;;;;8.07;100.00;101151.69;4821426;29;20978;-86
2022/12/25 09:27:08;;;;;;;10.07;6.20;;;;;;;8.06;100.00;101152.69;4837565;29;20037;-86
2022/12/25 09:29:33;;;;;;;13.90;6.27;;;;;;;8.07;100.00;101146.28;4822292;29;20045;-86
2022/12/25 09:31:58;;;;;;;11.70;5.97;;;;;;;8.08;100.00;101140.69;4843071;29;20475;-86
2022/12/25 09:34:24;;;;;;;11.83;6.27;;;;;;;8.07;100.00;101138.19;4819194;29;20166;-86
2022/12/25 09:36:49;;;;;;;12.60;6.30;;;;;;;8.06;100.00;101126.53;4836740;29;20535;-86
2022/12/25 09:39:15;;;;;;;11.23;6.53;;;;;;;8.08;100.00;101150.66;4840995;29;20034;-86
2022/12/25 09:42:09;;;;;;;10.60;6.67;;;;;;;8.08;100.00;101145.28;4850342;29;20025;-86
2022/12/25 09:45:08;;;;;;;13.98;6.50;;;;;;;8.10;100.00;101119.78;4827125;29;20044;-89
2022/12/25 09:47:38;;;;;;;12.17;6.03;;;;;;;8.04;100.00;101108.91;4838220;29;20076;-89
2022/12/25 09:50:14;;;;;;;13.80;6.73;;;;;;;8.03;100.00;101109.91;4842901;29;20438;-86
2022/12/25 09:52:52;;;;;;;10.70;6.30;;;;;;;8.04;100.00;101111.59;4850406;29;20081;-86
2022/12/25 09:55:21;;;;;;;12.97;6.47;;;;;;;8.00;100.00;101111.13;4836540;29;20037;-86
2022/12/25 09:57:55;;;;;;;12.03;5.83;;;;;;;8.00;100.00;101115.69;4852067;29;20117;-86
2022/12/25 10:00:23;;;;;;;12.23;6.70;;;;;;;8.02;100.00;101097.44;4853341;29;20041;-86
2022/12/25 10:03:12;;;;;;;10.07;6.57;;;;;;;8.01;100.00;101091.22;4852105;29;20041;-86
2022/12/25 10:05:46;;;;;;;11.23;6.67;;;;;;;8.01;100.00;101107.41;4834494;29;20360;-89
2022/12/25 10:08:27;;;;;;;11.88;6.28;;;;;;;8.02;100.00;101092.03;4834452;29;20036;-88
2022/12/25 10:11:30;;;;;;;12.17;6.13;;;;;;;8.04;100.00;101088.13;4856323;29;20049;-89
2022/12/25 10:14:24;;;;;;;11.67;6.20;;;;;;;8.02;100.00;101097.44;4832905;29;20129;-86
2022/12/25 10:17:27;;;;;;;11.23;6.00;;;;;;;8.03;100.00;101072.13;4849842;29;20040;-86
2022/12/25 10:20:01;;;;;;;12.10;6.77;;;;;;;8.00;100.00;101080.63;4855448;29;20454;-86
2022/12/25 10:22:58;;;;;;;11.00;6.60;;;;;;;8.01;100.00;101074.16;4832794;29;20042;-86
2022/12/25 10:25:24;;;;;;;10.70;6.60;;;;;;;8.00;100.00;101072.53;4846937;29;20036;-86
2022/12/25 10:27:55;;;;;;;10.47;6.00;;;;;;;8.00;100.00;101077.91;4835796;29;20021;-86
2022/12/25 10:30:23;;;;;;;10.43;6.40;;;;;;;8.00;100.00;101069.81;4836829;29;20033;-86
2022/12/25 10:32:50;;;;;;;12.00;6.80;;;;;;;8.00;100.00;101061.72;4834676;29;20038;-89
2022/12/25 10:35:19;;;;;;;9.87;6.37;;;;;;;7.99;100.00;101066.28;4837740;29;20037;-89
2022/12/25 10:37:51;;;;;;;11.77;6.70;;;;;;;7.96;100.00;101065.81;4855665;29;20054;-89
2022/12/25 10:40:22;;;;;;;10.50;6.47;;;;;;;7.96;100.00;101073.94;4853751;29;20044;-89
2022/12/25 10:42:54;;;;;;;12.17;6.93;;;;;;;7.96;100.00;101063.97;4832766;29;20068;-86
2022/12/25 10:45:19;;;;;;;11.80;7.30;;;;;;;7.93;100.00;101070.56;4854782;29;20033;-86
2022/12/25 10:47:46;;;;;;;12.37;6.80;;;;;;;7.93;100.00;101062.47;4816103;29;20061;-89
2022/12/25 10:50:22;;;;;;;10.10;7.07;;;;;;;7.93;100.00;101077.84;4833453;29;20025;-89
2022/12/25 10:53:18;;;;;;;10.83;6.83;;;;;;;7.93;100.00;101062.47;4833971;29;20025;-89
2022/12/25 10:55:53;;;;;;;14.20;7.20;;;;;;;7.92;100.00;101050.00;4853424;29;20065;-89
2022/12/25 10:58:19;;;;;;;11.87;7.27;;;;;;;7.94;100.00;101036.31;4832263;29;20037;-89
2022/12/25 11:00:52;;;;;;;13.47;7.57;;;;;;;7.95;100.00;101024.50;4825618;29;20532;-89
2022/12/25 11:03:22;;;;;;;12.53;7.77;;;;;;;7.95;100.00;101008.31;4853325;29;20037;-86
2022/12/25 11:05:53;;;;;;;13.27;7.53;;;;;;;7.96;100.00;101011.88;4852143;29;21766;-90
2022/12/25 11:08:21;;;;;;;15.83;8.20;;;;;;;7.98;100.00;101015.19;4854615;29;20478;-89
2022/12/25 11:11:04;;;;;;;14.50;7.50;;;;;;;7.98;100.00;101024.13;4855782;29;20037;-90
2022/12/25 11:13:33;;;;;;;13.33;7.40;;;;;;;7.96;100.00;101020.78;4838358;29;20440;-86
2022/12/25 11:16:04;;;;;;;14.00;8.27;;;;;;;7.98;100.00;101012.50;4835452;29;20090;-90
2022/12/25 11:18:43;;;;;;;15.13;7.90;;;;;;;7.98;100.00;101004.41;4848930;29;20495;-89
2022/12/25 11:21:17;;;;;;;14.30;9.13;;;;;;;7.98;100.00;101007.09;4835282;29;20044;-89
2022/12/25 11:23:55;;;;;;;11.85;8.48;;;;;;;7.98;100.00;100999.00;4830267;29;20030;-92
2022/12/25 11:26:21;;;;;;;13.90;9.63;;;;;;;8.00;100.00;101002.38;4848206;29;20037;-87
2022/12/25 11:28:49;;;;;;;16.20;9.10;;;;;;;7.97;100.00;100991.94;4835913;29;20060;-88
2022/12/25 11:31:20;;;;;;;14.77;9.90;;;;;;;7.99;100.00;100977.22;4832275;29;20029;-89
2022/12/25 11:34:17;;;;;;;15.20;10.03;;;;;;;8.01;100.00;100967.09;4835233;29;20041;-92
2022/12/25 11:36:46;;;;;;;16.90;10.43;;;;;;;8.00;100.00;100954.63;4833782;29;20041;-92
2022/12/25 11:39:24;;;;;;;13.80;9.23;;;;;;;8.02;100.00;100959.81;4854991;29;20616;-85
2022/12/25 11:41:58;;;;;;;15.90;9.73;;;;;;;8.00;100.00;100953.78;4833372;29;20044;-88
2022/12/25 11:44:48;;;;;;;15.93;10.35;;;;;;;8.04;100.00;100955.91;4838078;29;20037;-90
2022/12/25 11:47:24;;;;;;;13.60;10.20;;;;;;;8.00;100.00;100949.22;4838118;29;20482;-91
2022/12/25 11:49:58;;;;;;;14.40;10.40;;;;;;;7.98;100.00;100953.13;4838069;29;20029;-91
2022/12/25 11:52:31;;;;;;;16.52;10.88;;;;;;;7.96;100.00;100952.50;4837096;29;20067;-91
2022/12/25 11:55:04;;;;;;;16.73;11.17;;;;;;;7.94;100.00;100945.44;4855090;29;20039;-91
2022/12/25 11:57:31;;;;;;;19.03;12.03;;;;;;;7.95;100.00;100940.84;4835126;29;20074;-90
2022/12/25 12:00:09;;;;;;;16.80;12.00;;;;;;;7.95;100.00;100932.75;4834897;29;20435;-91
2022/12/25 12:02:47;;;;;;;16.50;11.47;;;;;;;7.97;100.00;100935.28;4849356;29;20037;-91
2022/12/25 12:05:22;;;;;;;16.40;11.53;;;;;;;7.95;100.00;100919.28;4836392;29;20993;-90
2022/12/25 12:07:56;;;;;;;;;;;;;;;8.05;100.00;100916.25;4849103;29;20432;-90
2022/12/25 12:10:44;;;;;;;15.47;11.63;;;;;;;7.97;100.00;100921.78;4835259;29;19916;-91
2022/12/25 12:13:09;;;;;;;15.57;11.50;;;;;;;8.00;100.00;100924.13;4847324;29;20326;-90
2022/12/25 12:15:46;;;;;;;18.90;11.33;;;;;;;8.00;100.00;100927.63;4834556;29;20037;-91
2022/12/25 12:18:29;;;;;;;18.07;12.50;;;;;;;8.00;100.00;100924.94;4824041;29;20452;-91
2022/12/25 12:20:58;;;;;;;16.67;12.20;;;;;;;7.99;100.00;100925.13;4846826;29;20032;-90
2022/12/25 12:23:25;;;;;;;18.13;12.80;;;;;;;8.00;100.00;100932.22;4843966;29;20113;-91
2022/12/25 12:25:51;;;;;;;17.30;11.80;;;;;;;7.99;100.00;100930.53;4850790;29;20044;-91
2022/12/25 12:28:35;;;;;;;16.23;12.50;;;;;;;8.02;100.00;100924.75;4854324;29;20028;-90
2022/12/25 12:31:07;;;;;;;17.10;12.60;;;;;;;8.02;100.00;100930.13;4835524;29;20033;-91
2022/12/25 12:33:39;;;;;;;17.00;12.67;;;;;;;8.00;100.00;100930.34;4833426;29;20049;-92
2022/12/25 12:36:05;;;;;;;17.40;12.33;;;;;;;8.03;100.00;100921.03;4840438;29;20025;-90
2022/12/25 12:38:33;;;;;;;19.23;12.90;;;;;;;8.04;100.00;100910.03;4849053;29;20034;-91
2022/12/25 12:41:04;;;;;;;16.50;12.90;;;;;;;8.04;100.00;100901.94;4832111;29;20449;-90
2022/12/25 12:43:35;;;;;;;20.07;14.67;;;;;;;8.07;100.00;100892.63;4831638;29;20034;-91
2022/12/25 12:46:03;;;;;;;20.10;14.00;;;;;;;8.06;100.00;100888.25;4832610;29;20359;-91
2022/12/25 12:48:29;;;;;;;19.97;14.90;;;;;;;8.06;100.00;100890.94;4840629;29;20026;-93
2022/12/25 12:51:03;;;;;;;18.57;14.67;;;;;;;8.08;100.00;100881.63;4837830;29;20117;-91
2022/12/25 12:53:31;;;;;;;20.05;15.95;;;;;;;8.12;100.00;100887.47;4848993;29;20082;-91
2022/12/25 12:56:17;;;;;;;19.17;14.37;;;;;;;8.11;100.00;100894.72;4839982;29;20045;-92
2022/12/25 12:58:49;;;;;;;18.57;14.07;;;;;;;8.08;100.00;100884.31;4833707;29;21885;-88
2022/12/25 13:01:28;;;;;;;17.80;13.07;;;;;;;8.09;100.00;100875.22;4850537;29;20026;-87
2022/12/25 13:04:28;;;;;;;17.13;13.40;;;;;;;8.11;100.00;100878.53;4847840;29;20026;-87
2022/12/25 13:07:09;;;;;;;19.03;14.20;;;;;;;8.13;100.00;100875.63;4834011;29;20029;-87
2022/12/25 13:09:53;;;;;;;18.00;14.17;;;;;;;8.11;100.00;100870.44;4852871;29;20061;-89